sensor_id;sensor_type;location;lat;lon;timestamp;pressure;altitude;pressure_sealevel;temperature;humidity
17260;BME280;8746;49.230;9.220;2022-07-29T00:01:59;99764.25;;;21.45;57.15
17260;BME280;8746;49.230;9.220;2022-07-29T00:04:25;99756.75;;;21.39;57.49
17260;BME280;8746;49.230;9.220;2022-07-29T00:06:50;99758.41;;;21.30;57.75
17260;BME280;8746;49.230;9.220;2022-07-29T00:09:15;99757.69;;;21.28;57.82
17260;BME280;8746;49.230;9.220;2022-07-29T00:11:41;99762.59;;;21.13;58.64
17260;BME280;8746;49.230;9.220;2022-07-29T00:14:06;99762.41;;;21.05;58.55
17260;BME280;8746;49.230;9.220;2022-07-29T00:16:32;99755.31;;;21.04;58.38
17260;BME280;8746;49.230;9.220;2022-07-29T00:18:57;99760.06;;;20.90;58.56
17260;BME280;8746;49.230;9.220;2022-07-29T00:21:23;99743.91;;;20.80;58.29
17260;BME280;8746;49.230;9.220;2022-07-29T00:23:48;99743.25;;;20.67;58.98
17260;BME280;8746;49.230;9.220;2022-07-29T00:26:13;99744.91;;;20.58;59.00
17260;BME280;8746;49.230;9.220;2022-07-29T00:28:39;99743.13;;;20.47;59.43
17260;BME280;8746;49.230;9.220;2022-07-29T00:31:04;99749.34;;;20.48;58.96
17260;BME280;8746;49.230;9.220;2022-07-29T00:33:30;99742.91;;;20.39;59.83
17260;BME280;8746;49.230;9.220;2022-07-29T00:35:56;99738.03;;;20.44;59.48
17260;BME280;8746;49.230;9.220;2022-07-29T00:38:21;99728.94;;;20.36;59.88
17260;BME280;8746;49.230;9.220;2022-07-29T00:40:47;99728.75;;;20.27;60.65
17260;BME280;8746;49.230;9.220;2022-07-29T00:43:13;99729.28;;;20.21;60.83
17260;BME280;8746;49.230;9.220;2022-07-29T00:45:39;99723.78;;;20.23;60.89
17260;BME280;8746;49.230;9.220;2022-07-29T00:48:05;99715.84;;;20.00;62.26
17260;BME280;8746;49.230;9.220;2022-07-29T00:50:31;99717.00;;;19.86;62.55
17260;BME280;8746;49.230;9.220;2022-07-29T00:52:57;99720.94;;;19.59;63.46
17260;BME280;8746;49.230;9.220;2022-07-29T00:55:23;99718.00;;;19.62;62.73
17260;BME280;8746;49.230;9.220;2022-07-29T00:57:49;99711.34;;;19.57;62.53
17260;BME280;8746;49.230;9.220;2022-07-29T01:00:20;99714.94;;;19.67;61.61
17260;BME280;8746;49.230;9.220;2022-07-29T01:02:47;99707.88;;;19.66;61.64
17260;BME280;8746;49.230;9.220;2022-07-29T01:05:13;99708.25;;;19.73;60.65
17260;BME280;8746;49.230;9.220;2022-07-29T01:07:39;99707.16;;;19.75;60.48
17260;BME280;8746;49.230;9.220;2022-07-29T01:10:08;99699.72;;;19.79;60.01
17260;BME280;8746;49.230;9.220;2022-07-29T01:12:35;99694.13;;;19.82;60.79
17260;BME280;8746;49.230;9.220;2022-07-29T01:15:05;99695.84;;;19.72;62.09
17260;BME280;8746;49.230;9.220;2022-07-29T01:17:57;99701.28;;;19.49;62.97
17260;BME280;8746;49.230;9.220;2022-07-29T01:20:39;99689.84;;;19.47;61.60
17260;BME280;8746;49.230;9.220;2022-07-29T01:23:24;99692.50;;;19.47;61.24
17260;BME280;8746;49.230;9.220;2022-07-29T01:26:38;99689.22;;;19.43;60.77
17260;BME280;8746;49.230;9.220;2022-07-29T01:31:55;99689.38;;;19.30;63.18
17260;BME280;8746;49.230;9.220;2022-07-29T01:34:25;99699.59;;;19.25;63.38
17260;BME280;8746;49.230;9.220;2022-07-29T01:37:19;99699.13;;;19.20;63.79
17260;BME280;8746;49.230;9.220;2022-07-29T01:39:47;99701.31;;;19.15;63.46
17260;BME280;8746;49.230;9.220;2022-07-29T01:42:29;99702.03;;;19.05;64.09
17260;BME280;8746;49.230;9.220;2022-07-29T01:45:01;99707.38;;;19.05;64.00
17260;BME280;8746;49.230;9.220;2022-07-29T01:47:37;99703.97;;;19.03;64.35
17260;BME280;8746;49.230;9.220;2022-07-29T01:50:07;99707.66;;;19.02;64.12
17260;BME280;8746;49.230;9.220;2022-07-29T01:52:37;99708.00;;;18.98;64.08
17260;BME280;8746;49.230;9.220;2022-07-29T01:55:13;99703.47;;;18.87;63.33
17260;BME280;8746;49.230;9.220;2022-07-29T01:57:42;99707.84;;;18.88;63.20
17260;BME280;8746;49.230;9.220;2022-07-29T02:00:08;99705.28;;;18.86;63.06
17260;BME280;8746;49.230;9.220;2022-07-29T02:02:35;99711.22;;;18.90;63.35
17260;BME280;8746;49.230;9.220;2022-07-29T02:05:03;99701.78;;;18.86;64.67
17260;BME280;8746;49.230;9.220;2022-07-29T02:07:32;99702.03;;;18.83;65.79
17260;BME280;8746;49.230;9.220;2022-07-29T02:10:00;99706.38;;;18.84;65.05
17260;BME280;8746;49.230;9.220;2022-07-29T02:12:28;99698.50;;;18.82;62.94
17260;BME280;8746;49.230;9.220;2022-07-29T02:14:56;99698.50;;;18.82;62.23
17260;BME280;8746;49.230;9.220;2022-07-29T02:17:30;99696.16;;;18.78;62.07
17260;BME280;8746;49.230;9.220;2022-07-29T02:19:59;99686.31;;;18.67;62.61
17260;BME280;8746;49.230;9.220;2022-07-29T02:22:26;99693.28;;;18.69;63.57
17260;BME280;8746;49.230;9.220;2022-07-29T02:24:53;99680.22;;;18.53;64.80
17260;BME280;8746;49.230;9.220;2022-07-29T02:27:22;99683.25;;;18.37;65.10
17260;BME280;8746;49.230;9.220;2022-07-29T02:29:50;99677.41;;;18.32;65.28
17260;BME280;8746;49.230;9.220;2022-07-29T02:32:16;99682.25;;;18.27;66.13
17260;BME280;8746;49.230;9.220;2022-07-29T02:34:43;99683.34;;;18.24;66.07
17260;BME280;8746;49.230;9.220;2022-07-29T02:37:11;99690.41;;;18.25;65.50
17260;BME280;8746;49.230;9.220;2022-07-29T02:39:38;99687.25;;;18.32;65.27
17260;BME280;8746;49.230;9.220;2022-07-29T02:42:07;99687.59;;;18.27;65.17
17260;BME280;8746;49.230;9.220;2022-07-29T02:44:34;99696.59;;;18.26;64.94
17260;BME280;8746;49.230;9.220;2022-07-29T02:47:36;99687.72;;;18.25;65.14
17260;BME280;8746;49.230;9.220;2022-07-29T02:50:12;99688.44;;;18.27;64.69
17260;BME280;8746;49.230;9.220;2022-07-29T02:52:45;99682.38;;;18.25;65.13
17260;BME280;8746;49.230;9.220;2022-07-29T02:55:35;99690.44;;;18.01;66.24
17260;BME280;8746;49.230;9.220;2022-07-29T02:58:10;99688.06;;;18.09;66.26
17260;BME280;8746;49.230;9.220;2022-07-29T03:00:39;99695.28;;;17.96;66.79
17260;BME280;8746;49.230;9.220;2022-07-29T03:03:09;99689.38;;;17.91;67.52
17260;BME280;8746;49.230;9.220;2022-07-29T03:05:37;99697.16;;;17.94;67.55
17260;BME280;8746;49.230;9.220;2022-07-29T03:08:05;99694.22;;;17.86;68.00
17260;BME280;8746;49.230;9.220;2022-07-29T03:10:32;99695.44;;;17.82;68.28
17260;BME280;8746;49.230;9.220;2022-07-29T03:12:58;99697.13;;;17.83;68.83
17260;BME280;8746;49.230;9.220;2022-07-29T03:15:24;99692.97;;;17.78;68.96
17260;BME280;8746;49.230;9.220;2022-07-29T03:17:51;99693.59;;;17.82;68.89
17260;BME280;8746;49.230;9.220;2022-07-29T03:20:17;99693.09;;;17.77;69.51
17260;BME280;8746;49.230;9.220;2022-07-29T03:22:44;99697.22;;;17.81;69.50
17260;BME280;8746;49.230;9.220;2022-07-29T03:25:16;99689.81;;;17.73;69.58
17260;BME280;8746;49.230;9.220;2022-07-29T03:27:42;99689.31;;;17.68;69.75
17260;BME280;8746;49.230;9.220;2022-07-29T03:30:08;99691.00;;;17.69;69.00
17260;BME280;8746;49.230;9.220;2022-07-29T03:32:34;99701.38;;;17.61;69.10
17260;BME280;8746;49.230;9.220;2022-07-29T03:35:00;99694.50;;;17.70;68.73
17260;BME280;8746;49.230;9.220;2022-07-29T03:37:26;99690.56;;;17.75;68.13
17260;BME280;8746;49.230;9.220;2022-07-29T03:39:53;99695.63;;;17.78;67.40
17260;BME280;8746;49.230;9.220;2022-07-29T03:42:20;99685.72;;;17.81;66.50
17260;BME280;8746;49.230;9.220;2022-07-29T03:44:50;99688.38;;;17.81;66.18
17260;BME280;8746;49.230;9.220;2022-07-29T03:47:20;99688.38;;;17.81;65.59
17260;BME280;8746;49.230;9.220;2022-07-29T03:49:48;99694.56;;;17.81;65.45
17260;BME280;8746;49.230;9.220;2022-07-29T03:52:16;99684.50;;;17.85;64.12
17260;BME280;8746;49.230;9.220;2022-07-29T03:54:41;99693.72;;;17.81;64.08
17260;BME280;8746;49.230;9.220;2022-07-29T03:57:07;99691.38;;;17.76;64.31
17260;BME280;8746;49.230;9.220;2022-07-29T03:59:35;99695.72;;;17.66;67.55
17260;BME280;8746;49.230;9.220;2022-07-29T04:02:03;99686.16;;;17.50;66.78
17260;BME280;8746;49.230;9.220;2022-07-29T04:04:32;99689.16;;;17.45;67.11
17260;BME280;8746;49.230;9.220;2022-07-29T04:06:58;99691.13;;;17.30;67.99
17260;BME280;8746;49.230;9.220;2022-07-29T04:09:23;99685.94;;;17.16;67.58
17260;BME280;8746;49.230;9.220;2022-07-29T04:11:49;99688.72;;;17.14;67.27
17260;BME280;8746;49.230;9.220;2022-07-29T04:14:15;99687.66;;;17.17;67.38
17260;BME280;8746;49.230;9.220;2022-07-29T04:16:40;99693.84;;;17.18;67.46
17260;BME280;8746;49.230;9.220;2022-07-29T04:19:05;99700.97;;;17.17;67.80
17260;BME280;8746;49.230;9.220;2022-07-29T04:21:36;99692.44;;;17.25;67.52
17260;BME280;8746;49.230;9.220;2022-07-29T04:24:02;99696.28;;;17.21;67.68
17260;BME280;8746;49.230;9.220;2022-07-29T04:26:27;99692.66;;;17.22;67.97
17260;BME280;8746;49.230;9.220;2022-07-29T04:28:52;99695.50;;;17.32;67.65
17260;BME280;8746;49.230;9.220;2022-07-29T04:31:18;99701.03;;;17.41;67.49
17260;BME280;8746;49.230;9.220;2022-07-29T04:33:43;99702.09;;;17.39;67.91
17260;BME280;8746;49.230;9.220;2022-07-29T04:36:08;99705.41;;;17.42;68.35
17260;BME280;8746;49.230;9.220;2022-07-29T04:38:36;99703.25;;;17.48;68.24
17260;BME280;8746;49.230;9.220;2022-07-29T04:41:01;99711.03;;;17.51;67.91
17260;BME280;8746;49.230;9.220;2022-07-29T04:43:26;99700.31;;;17.63;66.13
17260;BME280;8746;49.230;9.220;2022-07-29T04:45:52;99708.94;;;17.67;65.51
17260;BME280;8746;49.230;9.220;2022-07-29T04:48:17;99703.81;;;17.64;64.94
17260;BME280;8746;49.230;9.220;2022-07-29T04:50:42;99708.47;;;17.73;64.39
17260;BME280;8746;49.230;9.220;2022-07-29T04:53:09;99701.94;;;17.77;64.69
17260;BME280;8746;49.230;9.220;2022-07-29T04:55:34;99693.94;;;17.77;64.64
17260;BME280;8746;49.230;9.220;2022-07-29T04:58:01;99707.91;;;17.81;64.02
17260;BME280;8746;49.230;9.220;2022-07-29T05:00:27;99693.84;;;17.79;64.34
17260;BME280;8746;49.230;9.220;2022-07-29T05:02:52;99696.53;;;18.03;63.80
17260;BME280;8746;49.230;9.220;2022-07-29T05:05:17;99694.38;;;18.20;63.04
17260;BME280;8746;49.230;9.220;2022-07-29T05:07:43;99694.63;;;18.17;63.28
17260;BME280;8746;49.230;9.220;2022-07-29T05:10:09;99700.88;;;18.04;63.46
17260;BME280;8746;49.230;9.220;2022-07-29T05:12:34;99696.91;;;18.10;63.30
17260;BME280;8746;49.230;9.220;2022-07-29T05:15:00;99698.28;;;18.27;62.42
17260;BME280;8746;49.230;9.220;2022-07-29T05:17:26;99701.69;;;18.29;62.17
17260;BME280;8746;49.230;9.220;2022-07-29T05:19:51;99702.47;;;18.42;61.61
17260;BME280;8746;49.230;9.220;2022-07-29T05:22:18;99713.22;;;18.30;61.78
17260;BME280;8746;49.230;9.220;2022-07-29T05:24:44;99702.81;;;18.38;61.73
17260;BME280;8746;49.230;9.220;2022-07-29T05:27:09;99699.88;;;18.41;61.54
17260;BME280;8746;49.230;9.220;2022-07-29T05:29:35;99710.00;;;18.49;62.04
17260;BME280;8746;49.230;9.220;2022-07-29T05:32:00;99705.16;;;18.65;61.78
17260;BME280;8746;49.230;9.220;2022-07-29T05:34:26;99711.97;;;18.81;61.04
17260;BME280;8746;49.230;9.220;2022-07-29T05:36:52;99715.00;;;18.87;61.47
17260;BME280;8746;49.230;9.220;2022-07-29T05:39:17;99715.41;;;19.05;60.77
17260;BME280;8746;49.230;9.220;2022-07-29T05:41:43;99713.84;;;18.92;61.95
17260;BME280;8746;49.230;9.220;2022-07-29T05:44:08;99719.41;;;19.00;61.20
17260;BME280;8746;49.230;9.220;2022-07-29T05:46:34;99721.72;;;19.04;61.70
17260;BME280;8746;49.230;9.220;2022-07-29T05:48:59;99721.72;;;19.04;62.00
17260;BME280;8746;49.230;9.220;2022-07-29T05:51:24;99722.19;;;19.32;61.65
17260;BME280;8746;49.230;9.220;2022-07-29T05:53:50;99722.16;;;19.44;60.42
17260;BME280;8746;49.230;9.220;2022-07-29T05:56:15;99721.16;;;19.56;60.62
17260;BME280;8746;49.230;9.220;2022-07-29T05:58:40;99720.66;;;19.62;60.28
17260;BME280;8746;49.230;9.220;2022-07-29T06:01:06;99727.28;;;19.47;61.38
17260;BME280;8746;49.230;9.220;2022-07-29T06:03:31;99720.97;;;19.36;61.52
17260;BME280;8746;49.230;9.220;2022-07-29T06:05:57;99723.88;;;19.45;61.47
17260;BME280;8746;49.230;9.220;2022-07-29T06:08:22;99725.69;;;19.56;61.03
17260;BME280;8746;49.230;9.220;2022-07-29T06:10:48;99728.22;;;19.68;60.55
17260;BME280;8746;49.230;9.220;2022-07-29T06:13:14;99736.59;;;19.75;60.21
17260;BME280;8746;49.230;9.220;2022-07-29T06:15:41;99730.59;;;19.83;60.68
17260;BME280;8746;49.230;9.220;2022-07-29T06:18:06;99726.91;;;19.95;60.45
17260;BME280;8746;49.230;9.220;2022-07-29T06:20:34;99729.44;;;20.08;59.57
17260;BME280;8746;49.230;9.220;2022-07-29T06:22:59;99727.28;;;20.02;60.03
17260;BME280;8746;49.230;9.220;2022-07-29T06:25:25;99732.66;;;20.23;59.45
17260;BME280;8746;49.230;9.220;2022-07-29T06:27:51;99726.06;;;20.27;59.05
17260;BME280;8746;49.230;9.220;2022-07-29T06:30:17;99732.88;;;20.31;59.10
17260;BME280;8746;49.230;9.220;2022-07-29T06:32:42;99742.66;;;20.42;58.82
17260;BME280;8746;49.230;9.220;2022-07-29T06:35:08;99738.53;;;20.38;59.03
17260;BME280;8746;49.230;9.220;2022-07-29T06:37:33;99739.50;;;20.16;59.65
17260;BME280;8746;49.230;9.220;2022-07-29T06:40:00;99740.50;;;20.15;59.95
17260;BME280;8746;49.230;9.220;2022-07-29T06:43:03;99741.75;;;20.53;58.86
17260;BME280;8746;49.230;9.220;2022-07-29T06:45:29;99743.47;;;20.75;58.79
17260;BME280;8746;49.230;9.220;2022-07-29T06:47:54;99744.25;;;20.45;59.24
17260;BME280;8746;49.230;9.220;2022-07-29T06:50:20;99750.56;;;20.44;59.47
17260;BME280;8746;49.230;9.220;2022-07-29T06:52:47;99749.91;;;20.94;58.40
17260;BME280;8746;49.230;9.220;2022-07-29T06:55:12;99751.00;;;21.12;58.10
17260;BME280;8746;49.230;9.220;2022-07-29T06:57:37;99756.00;;;21.27;57.55
17260;BME280;8746;49.230;9.220;2022-07-29T07:00:04;99750.13;;;21.43;57.45
17260;BME280;8746;49.230;9.220;2022-07-29T07:02:30;99750.13;;;21.53;57.34
17260;BME280;8746;49.230;9.220;2022-07-29T07:04:55;99759.16;;;21.52;57.87
17260;BME280;8746;49.230;9.220;2022-07-29T07:07:20;99759.59;;;21.47;57.73
17260;BME280;8746;49.230;9.220;2022-07-29T07:09:46;99755.56;;;21.63;56.90
17260;BME280;8746;49.230;9.220;2022-07-29T07:12:11;99754.84;;;21.60;57.31
17260;BME280;8746;49.230;9.220;2022-07-29T07:14:36;99756.44;;;21.73;57.64
17260;BME280;8746;49.230;9.220;2022-07-29T07:17:02;99752.06;;;21.82;57.44
17260;BME280;8746;49.230;9.220;2022-07-29T07:19:29;99754.84;;;21.60;58.52
17260;BME280;8746;49.230;9.220;2022-07-29T07:21:54;99757.66;;;21.59;59.25
17260;BME280;8746;49.230;9.220;2022-07-29T07:24:20;99756.69;;;21.60;59.37
17260;BME280;8746;49.230;9.220;2022-07-29T07:26:45;99753.47;;;21.76;59.01
17260;BME280;8746;49.230;9.220;2022-07-29T07:29:11;99754.78;;;21.91;58.86
17260;BME280;8746;49.230;9.220;2022-07-29T07:31:37;99749.56;;;22.00;59.15
17260;BME280;8746;49.230;9.220;2022-07-29T07:34:03;99750.25;;;22.21;59.97
17260;BME280;8746;49.230;9.220;2022-07-29T07:36:28;99755.38;;;22.44;58.82
17260;BME280;8746;49.230;9.220;2022-07-29T07:38:54;99752.78;;;22.72;58.65
17260;BME280;8746;49.230;9.220;2022-07-29T07:41:20;99751.53;;;22.56;58.53
17260;BME280;8746;49.230;9.220;2022-07-29T07:43:45;99744.00;;;22.70;58.20
17260;BME280;8746;49.230;9.220;2022-07-29T07:46:10;99744.81;;;22.80;58.47
17260;BME280;8746;49.230;9.220;2022-07-29T07:48:36;99745.66;;;22.91;57.50
17260;BME280;8746;49.230;9.220;2022-07-29T07:51:01;99748.25;;;23.10;56.66
17260;BME280;8746;49.230;9.220;2022-07-29T07:53:27;99742.88;;;23.10;56.70
17260;BME280;8746;49.230;9.220;2022-07-29T07:55:55;99754.59;;;23.29;56.37
17260;BME280;8746;49.230;9.220;2022-07-29T07:58:20;99750.13;;;23.00;56.79
17260;BME280;8746;49.230;9.220;2022-07-29T08:00:46;99747.91;;;23.33;56.30
17260;BME280;8746;49.230;9.220;2022-07-29T08:03:12;99738.09;;;23.42;55.84
17260;BME280;8746;49.230;9.220;2022-07-29T08:05:39;99739.59;;;23.26;55.18
17260;BME280;8746;49.230;9.220;2022-07-29T08:08:05;99731.84;;;23.69;55.10
17260;BME280;8746;49.230;9.220;2022-07-29T08:10:31;99746.44;;;23.94;54.32
17260;BME280;8746;49.230;9.220;2022-07-29T08:13:15;99739.22;;;23.85;53.72
17260;BME280;8746;49.230;9.220;2022-07-29T08:15:40;99737.38;;;23.67;54.32
17260;BME280;8746;49.230;9.220;2022-07-29T08:18:07;99737.50;;;23.66;54.67
17260;BME280;8746;49.230;9.220;2022-07-29T08:20:33;99733.00;;;23.84;54.84
17260;BME280;8746;49.230;9.220;2022-07-29T08:23:00;99740.81;;;24.06;54.49
17260;BME280;8746;49.230;9.220;2022-07-29T08:25:26;99739.63;;;24.44;52.88
17260;BME280;8746;49.230;9.220;2022-07-29T08:27:51;99740.94;;;24.40;52.31
17260;BME280;8746;49.230;9.220;2022-07-29T08:30:17;99739.09;;;24.41;52.48
17260;BME280;8746;49.230;9.220;2022-07-29T08:32:42;99743.72;;;24.75;51.45
17260;BME280;8746;49.230;9.220;2022-07-29T08:35:08;99742.06;;;24.74;51.19
17260;BME280;8746;49.230;9.220;2022-07-29T08:37:34;99739.97;;;24.94;50.68
17260;BME280;8746;49.230;9.220;2022-07-29T08:39:59;99736.00;;;25.06;49.98
17260;BME280;8746;49.230;9.220;2022-07-29T08:42:25;99741.34;;;24.98;50.29
17260;BME280;8746;49.230;9.220;2022-07-29T08:44:50;99739.75;;;25.13;49.99
17260;BME280;8746;49.230;9.220;2022-07-29T08:47:16;99733.78;;;25.36;49.78
17260;BME280;8746;49.230;9.220;2022-07-29T08:49:42;99738.50;;;25.00;50.75
17260;BME280;8746;49.230;9.220;2022-07-29T08:52:10;99731.81;;;24.86;51.36
17260;BME280;8746;49.230;9.220;2022-07-29T08:54:36;99736.00;;;25.06;50.50
17260;BME280;8746;49.230;9.220;2022-07-29T08:57:01;99733.34;;;25.15;49.71
17260;BME280;8746;49.230;9.220;2022-07-29T08:59:27;99736.56;;;25.18;49.32
17260;BME280;8746;49.230;9.220;2022-07-29T09:01:57;99745.47;;;25.45;48.87
17260;BME280;8746;49.230;9.220;2022-07-29T09:04:24;99741.00;;;25.36;48.44
17260;BME280;8746;49.230;9.220;2022-07-29T09:06:54;99737.50;;;25.86;48.33
17260;BME280;8746;49.230;9.220;2022-07-29T09:09:22;99738.66;;;25.92;48.54
17260;BME280;8746;49.230;9.220;2022-07-29T09:11:47;99735.25;;;25.90;48.19
17260;BME280;8746;49.230;9.220;2022-07-29T09:14:14;99738.00;;;25.98;48.58
17260;BME280;8746;49.230;9.220;2022-07-29T09:16:53;99742.59;;;25.47;49.30
17260;BME280;8746;49.230;9.220;2022-07-29T09:19:21;99733.72;;;25.71;49.38
17260;BME280;8746;49.230;9.220;2022-07-29T09:21:46;99731.88;;;25.80;48.39
17260;BME280;8746;49.230;9.220;2022-07-29T09:27:00;99727.16;;;25.82;48.34
17260;BME280;8746;49.230;9.220;2022-07-29T09:29:26;99727.09;;;25.49;48.89
17260;BME280;8746;49.230;9.220;2022-07-29T09:31:53;99722.16;;;26.12;48.20
17260;BME280;8746;49.230;9.220;2022-07-29T09:34:24;99720.63;;;26.34;46.97
17260;BME280;8746;49.230;9.220;2022-07-29T09:36:51;99716.41;;;26.06;46.90
17260;BME280;8746;49.230;9.220;2022-07-29T09:39:47;99716.59;;;26.30;47.06
17260;BME280;8746;49.230;9.220;2022-07-29T09:42:12;99718.56;;;26.03;47.82
17260;BME280;8746;49.230;9.220;2022-07-29T09:47:08;99717.44;;;26.14;46.09
17260;BME280;8746;49.230;9.220;2022-07-29T09:49:35;99714.47;;;26.73;44.84
17260;BME280;8746;49.230;9.220;2022-07-29T09:52:05;99709.78;;;26.83;44.26
17260;BME280;8746;49.230;9.220;2022-07-29T09:54:31;99708.25;;;26.72;43.75
17260;BME280;8746;49.230;9.220;2022-07-29T09:57:07;99711.13;;;27.27;43.47
17260;BME280;8746;49.230;9.220;2022-07-29T09:59:37;99707.50;;;27.51;41.66
17260;BME280;8746;49.230;9.220;2022-07-29T10:02:12;99713.28;;;27.72;41.79
17260;BME280;8746;49.230;9.220;2022-07-29T10:04:42;99705.59;;;27.83;41.51
17260;BME280;8746;49.230;9.220;2022-07-29T10:07:08;99707.63;;;27.81;39.34
17260;BME280;8746;49.230;9.220;2022-07-29T10:09:35;99708.47;;;27.82;38.70
17260;BME280;8746;49.230;9.220;2022-07-29T10:12:05;99705.16;;;27.72;39.55
17260;BME280;8746;49.230;9.220;2022-07-29T10:14:32;99701.38;;;28.27;39.40
17260;BME280;8746;49.230;9.220;2022-07-29T10:16:59;99697.84;;;28.42;38.04
17260;BME280;8746;49.230;9.220;2022-07-29T10:19:26;99700.00;;;28.61;37.23
17260;BME280;8746;49.230;9.220;2022-07-29T10:21:52;99702.38;;;28.50;38.02
17260;BME280;8746;49.230;9.220;2022-07-29T10:24:18;99699.53;;;28.43;37.96
17260;BME280;8746;49.230;9.220;2022-07-29T10:26:43;99697.47;;;28.45;38.22
17260;BME280;8746;49.230;9.220;2022-07-29T10:29:11;99702.78;;;28.38;38.26
17260;BME280;8746;49.230;9.220;2022-07-29T10:40:15;99702.47;;;29.68;36.58
17260;BME280;8746;49.230;9.220;2022-07-29T10:43:09;99705.34;;;29.45;36.67
17260;BME280;8746;49.230;9.220;2022-07-29T10:45:40;99700.59;;;30.05;36.52
17260;BME280;8746;49.230;9.220;2022-07-29T10:48:05;99695.78;;;29.85;36.96
17260;BME280;8746;49.230;9.220;2022-07-29T10:50:53;99701.34;;;29.77;36.66
17260;BME280;8746;49.230;9.220;2022-07-29T10:53:21;99690.97;;;29.87;36.78
17260;BME280;8746;49.230;9.220;2022-07-29T10:55:46;99689.88;;;30.25;36.42
17260;BME280;8746;49.230;9.220;2022-07-29T10:58:23;99687.59;;;30.50;36.08
17260;BME280;8746;49.230;9.220;2022-07-29T11:00:51;99688.66;;;30.56;35.07
17260;BME280;8746;49.230;9.220;2022-07-29T11:03:48;99686.56;;;30.51;35.89
17260;BME280;8746;49.230;9.220;2022-07-29T11:06:17;99687.06;;;31.04;35.72
17260;BME280;8746;49.230;9.220;2022-07-29T11:08:42;99686.47;;;31.08;34.79
17260;BME280;8746;49.230;9.220;2022-07-29T11:13:47;99680.66;;;31.11;34.31
17260;BME280;8746;49.230;9.220;2022-07-29T11:16:16;99693.34;;;31.53;33.80
17260;BME280;8746;49.230;9.220;2022-07-29T11:21:42;99684.47;;;31.24;33.80
17260;BME280;8746;49.230;9.220;2022-07-29T11:24:16;99672.25;;;31.81;34.08
17260;BME280;8746;49.230;9.220;2022-07-29T11:26:43;99665.63;;;31.36;34.50
17260;BME280;8746;49.230;9.220;2022-07-29T11:31:45;99660.94;;;31.16;34.67
17260;BME280;8746;49.230;9.220;2022-07-29T11:34:25;99660.38;;;31.34;34.20
17260;BME280;8746;49.230;9.220;2022-07-29T11:39:38;99662.94;;;31.42;34.21
17260;BME280;8746;49.230;9.220;2022-07-29T11:45:05;99659.47;;;32.02;32.94
17260;BME280;8746;49.230;9.220;2022-07-29T11:47:33;99647.94;;;31.87;33.90
17260;BME280;8746;49.230;9.220;2022-07-29T11:49:59;99644.78;;;31.76;34.62
17260;BME280;8746;49.230;9.220;2022-07-29T11:52:36;99650.47;;;32.35;32.81
17260;BME280;8746;49.230;9.220;2022-07-29T11:55:04;99647.75;;;32.35;32.95
17260;BME280;8746;49.230;9.220;2022-07-29T11:57:31;99647.28;;;32.11;33.33
17260;BME280;8746;49.230;9.220;2022-07-29T11:59:59;99648.16;;;31.85;33.56
17260;BME280;8746;49.230;9.220;2022-07-29T12:02:38;99646.06;;;32.21;32.94
17260;BME280;8746;49.230;9.220;2022-07-29T12:05:03;99651.09;;;32.37;32.78
17260;BME280;8746;49.230;9.220;2022-07-29T12:07:33;99643.69;;;32.65;31.68
17260;BME280;8746;49.230;9.220;2022-07-29T12:10:00;99646.09;;;33.13;30.89
17260;BME280;8746;49.230;9.220;2022-07-29T12:12:25;99645.84;;;33.15;31.25
17260;BME280;8746;49.230;9.220;2022-07-29T12:14:51;99643.59;;;33.50;30.35
17260;BME280;8746;49.230;9.220;2022-07-29T12:17:31;99639.03;;;34.01;29.90
17260;BME280;8746;49.230;9.220;2022-07-29T12:19:59;99636.88;;;34.29;29.55
17260;BME280;8746;49.230;9.220;2022-07-29T12:22:37;99633.09;;;34.55;28.50
17260;BME280;8746;49.230;9.220;2022-07-29T12:25:07;99629.22;;;35.30;28.06
17260;BME280;8746;49.230;9.220;2022-07-29T12:27:34;99627.69;;;35.35;27.99
17260;BME280;8746;49.230;9.220;2022-07-29T12:30:05;99629.81;;;34.83;27.97
17260;BME280;8746;49.230;9.220;2022-07-29T12:37:35;99617.47;;;34.12;28.11
17260;BME280;8746;49.230;9.220;2022-07-29T12:40:03;99629.28;;;34.93;27.06
17260;BME280;8746;49.230;9.220;2022-07-29T12:42:29;99627.97;;;35.45;26.20
17260;BME280;8746;49.230;9.220;2022-07-29T12:44:54;99628.09;;;35.20;26.57
17260;BME280;8746;49.230;9.220;2022-07-29T12:47:20;99629.75;;;34.90;26.22
17260;BME280;8746;49.230;9.220;2022-07-29T12:49:46;99626.22;;;33.63;28.09
17260;BME280;8746;49.230;9.220;2022-07-29T12:52:31;99622.56;;;31.86;29.61
17260;BME280;8746;49.230;9.220;2022-07-29T12:54:57;99622.41;;;31.19;31.20
17260;BME280;8746;49.230;9.220;2022-07-29T12:57:24;99622.47;;;31.53;30.96
17260;BME280;8746;49.230;9.220;2022-07-29T13:02:24;99613.69;;;31.64;30.29
17260;BME280;8746;49.230;9.220;2022-07-29T13:05:00;99618.69;;;31.40;30.32
17260;BME280;8746;49.230;9.220;2022-07-29T13:07:27;99628.44;;;31.08;31.23
17260;BME280;8746;49.230;9.220;2022-07-29T13:10:00;99630.31;;;30.37;32.27
17260;BME280;8746;49.230;9.220;2022-07-29T13:12:34;99619.28;;;30.45;32.63
17260;BME280;8746;49.230;9.220;2022-07-29T13:15:00;99621.78;;;30.75;32.52
17260;BME280;8746;49.230;9.220;2022-07-29T13:17:26;99620.81;;;30.54;32.03
17260;BME280;8746;49.230;9.220;2022-07-29T13:20:08;99630.78;;;30.47;32.40
17260;BME280;8746;49.230;9.220;2022-07-29T13:22:37;99623.75;;;30.53;32.15
17260;BME280;8746;49.230;9.220;2022-07-29T13:25:03;99625.91;;;30.36;31.83
17260;BME280;8746;49.230;9.220;2022-07-29T13:27:30;99616.94;;;30.42;31.99
17260;BME280;8746;49.230;9.220;2022-07-29T13:30:03;99629.41;;;30.51;31.95
17260;BME280;8746;49.230;9.220;2022-07-29T13:32:29;99631.16;;;30.37;32.21
17260;BME280;8746;49.230;9.220;2022-07-29T13:34:56;99637.28;;;30.18;33.37
17260;BME280;8746;49.230;9.220;2022-07-29T13:37:21;99626.91;;;30.28;32.86
17260;BME280;8746;49.230;9.220;2022-07-29T13:39:46;99630.47;;;30.29;32.75
17260;BME280;8746;49.230;9.220;2022-07-29T13:42:12;99626.06;;;29.99;32.55
17260;BME280;8746;49.230;9.220;2022-07-29T13:44:38;99624.59;;;29.97;32.56
17260;BME280;8746;49.230;9.220;2022-07-29T13:47:04;99628.75;;;29.93;31.79
17260;BME280;8746;49.230;9.220;2022-07-29T13:49:30;99625.41;;;29.97;31.70
17260;BME280;8746;49.230;9.220;2022-07-29T13:51:55;99627.50;;;29.95;32.44
17260;BME280;8746;49.230;9.220;2022-07-29T13:54:20;99625.22;;;29.99;32.30